Das ist die Wetter- und Hausseite der Bittkau's aus Magdeburg Ottersleben


Hier werden aktuelle Daten aus der privaten Wetterstation und

andere lokale Wettervorhersagen bereitgestellt




Thunder radar more information blitzortung!


Rain radar more information rain snow radar



Es ist keine erhöhte Aufmerksamkeit aufgrund des Wetters notwendig.    Es gibt keine Warnungen.

METAR-Meldungen aus der Umgebung

   
EBBC - Cochstedt
Aktualisierung: 01.01.1970 1:00
Nicht aktuell
  
  
   Wind: Windstille
Wind: Windstille
EDDP - Leipzig
Aktualisierung: 17.10.2018 3:20
Klar  
Klar  
   Wind: Süden 5.6 km/h
Wind: Süden 5.6 km/h
Temperatur: 9°C
Gefühlt: 8°C
Taupunkt: 8°C
Luftfeuchte: 94%
Luftdruck: 1019 hPa
Sichtbarkeit: More than 10 km
Bewölkung: Klar
EDDP 170120Z 19003KT CAVOK 09/08 Q1019 NOSIG
EDDC - Dresden
Aktualisierung: 17.10.2018 3:50
Klar  
Klar  
   Wind: WSW 3.7 km/h
Wind: WSW 3.7 km/h
Temperatur: 8°C
Taupunkt: 6°C
Luftfeuchte: 87%
Luftdruck: 1019 hPa
Sichtbarkeit: More than 10 km
Bewölkung: Klar
EDDC 170150Z 24002KT CAVOK 08/06 Q1019
EDDE - Erfurt
Aktualisierung: 17.10.2018 3:50
Klar  
Klar  
   Wind: SW 14.8 km/h
Wind: SW 14.8 km/h
Temperatur: 10°C
Gefühlt: 8°C
Taupunkt: 9°C
Luftfeuchte: 94%
Luftdruck: 1019 hPa
Sichtbarkeit: More than 10 km
Bewölkung: Klar
EDDE 170150Z 23008KT CAVOK 10/09 Q1019
EDVE - Braunschweig
Aktualisierung: 16.10.2018 9:20
Nicht aktuell
Klar  
Klar  
   Wind: Windstille
Wind: Windstille
Temperatur: 15°C
Taupunkt: 12°C
Luftfeuchte: 82%
Luftdruck: 1019 hPa
Sichtbarkeit: More than 10 km
Bewölkung: Klar
EDVE 161920Z 00000KT CAVOK 15/12 Q1019
EDDV - Hannover
Aktualisierung: 17.10.2018 3:50
Nebel, Teilweise bewölkt  
Nebel, Teilweise bewölkt  
   Wind: Windstille
Wind: Windstille
Temperatur: 9°C
Taupunkt: 9°C
Luftfeuchte: 100%
Luftdruck: 1019 hPa
Bewölkt: Teilweise bewölkt
Sichtbarkeit: 1 km
Bewölkung: Teilweise bewölkt
EDDV 170150Z 00000KT 0700 R27R/0500V0800D R27L/P2000N FG NSC 09/09 Q1019
EDDT - Berlin
Aktualisierung: 17.10.2018 3:50
Klar  
Klar  
   Wind: variiert 1.9 km/h
Wind: variiert 1.9 km/h
Temperatur: 7°C
Taupunkt: 6°C
Luftfeuchte: 93%
Luftdruck: 1019 hPa
Sichtbarkeit: More than 10 km
Bewölkung: Klar
EDDT 170150Z VRB01KT CAVOK 07/06 Q1019
EDDE - Schwerin
Aktualisierung: 17.10.2018 3:50
Klar  
Klar  
   Wind: SW 14.8 km/h
Wind: SW 14.8 km/h
Temperatur: 10°C
Gefühlt: 8°C
Taupunkt: 9°C
Luftfeuchte: 94%
Luftdruck: 1019 hPa
Sichtbarkeit: More than 10 km
Bewölkung: Klar
EDDE 170150Z 23008KT CAVOK 10/09 Q1019
EDHI - Hamburg
Aktualisierung: 17.10.2018 3:20
  
  
   Wind: Windstille
Wind: Windstille
Sichtbarkeit: 1 km
EDHI 170120Z AUTO 00000KT 1000 0900 R23/1100D // FEW004/// SCT140/// 12/12 Q1018
EDDK - Köln/Bonn
Aktualisierung: 17.10.2018 3:50
Klar  
Klar  
   Wind: OSO 5.6 km/h
Wind: OSO 5.6 km/h
Temperatur: 11°C
Taupunkt: 9°C
Luftfeuchte: 88%
Luftdruck: 1019 hPa
Sichtbarkeit: More than 10 km
Bewölkung: Klar
EDDK 170150Z 12003KT CAVOK 11/09 Q1019 NOSIG
EDHL - Luebeck
Aktualisierung: 16.10.2018 8:50
Nicht aktuell
Klar  
Klar  
   Wind: variiert 1.9 km/h
Wind: variiert 1.9 km/h
Temperatur: 15°C
Taupunkt: 13°C
Luftfeuchte: 88%
Luftdruck: 1019 hPa
Sichtbarkeit: More than 10 km
Bewölkung: Klar
EDHL 161850Z VRB01KT CAVOK 15/13 Q1019
 

Script entwickelt von  Saratoga-weather.org Angepasst für das Template von  Weerstation Leuven

Sie finden die Wetterinfo auch auf:

Wetternetzwerk Deutschland

European Weather Network

Weather Underground

Regionalwetter-SA

wetter.com

wxforum.de

Genutzte Hardware, Software und WEB Anbieter:

Wetterstation
Ventus W928-Ultimate

Wetterprogramm
Meteohub

WetterComputer
RaspberryPI

Anbieter
WEB Provider One.com

Ventus W928-Ultimate

Meteohub

RaspberryPI

WEB Provider One.com